Time;durP1;ratioP1;P1;durP2;ratioP2;P2;SDS_P1;SDS_P2;PMS_P1;PMS_P2;Temp;Humidity;BMP_temperature;BMP_pressure;BME280_temperature;BME280_humidity;BME280_pressure;Samples;Min_cycle;Max_cycle;Signal;HPM_P1;HPM_P2
2022/09/20 00:02:04;;;;;;;25.92;10.55;;;9.20;99.90;;;8.10;100.00;97824.34;5052501;28;20417;-75
2022/09/20 00:04:30;;;;;;;23.20;10.15;;;9.20;99.90;;;8.09;100.00;97826.19;5050968;28;20409;-75
2022/09/20 00:06:55;;;;;;;26.27;10.57;;;9.20;99.90;;;8.09;100.00;97818.28;5033761;28;20446;-74
2022/09/20 00:09:21;;;;;;;25.15;10.30;;;9.20;99.90;;;8.11;100.00;97807.50;5039795;28;20464;-73
2022/09/20 00:11:51;;;;;;;27.17;10.93;;;9.20;99.90;;;8.09;100.00;97815.63;5052381;28;20481;-74
2022/09/20 00:14:17;;;;;;;26.23;10.85;;;9.20;99.90;;;8.08;100.00;97815.84;5051740;28;20448;-72
2022/09/20 00:16:42;;;;;;;28.98;11.50;;;9.10;99.90;;;8.05;100.00;97813.66;5054416;28;20504;-75
2022/09/20 00:19:18;;;;;;;19.97;10.00;;;9.10;99.90;;;8.00;100.00;97818.81;5048567;28;20419;-75
2022/09/20 00:21:44;;;;;;;28.17;10.00;;;9.00;99.90;;;7.93;100.00;97815.47;5063464;28;20967;-75
2022/09/20 00:24:10;;;;;;;19.05;9.35;;;9.00;99.90;;;7.95;100.00;97816.84;5063213;28;20415;-74
2022/09/20 00:26:36;;;;;;;22.95;10.35;;;9.00;99.90;;;7.93;100.00;97816.25;5056052;28;20438;-73
2022/09/20 00:29:04;;;;;;;23.65;9.88;;;9.00;99.90;;;7.91;100.00;97813.03;5051609;28;20410;-75
2022/09/20 00:31:30;;;;;;;20.20;9.40;;;9.00;99.90;;;7.92;100.00;97816.47;5035650;28;20952;-74
2022/09/20 00:36:43;;;;;;;22.33;9.65;;;9.00;99.90;;;7.92;100.00;97814.66;5048726;28;20450;-75
2022/09/20 00:39:12;;;;;;;29.42;10.57;;;9.00;99.90;;;7.87;100.00;97822.44;5051433;28;20513;-75
2022/09/20 00:41:38;;;;;;;20.17;9.90;;;9.00;99.90;;;7.88;100.00;97818.78;5051624;28;20405;-75
2022/09/20 00:44:44;;;;;;;24.77;10.23;;;8.90;99.90;;;7.86;100.00;97814.75;5051100;28;20964;-76
2022/09/20 00:47:19;;;;;;;24.27;10.32;;;8.90;99.90;;;7.82;100.00;97813.59;5044674;28;20481;-73
2022/09/20 00:49:45;;;;;;;25.17;10.60;;;8.90;99.90;;;7.80;100.00;97821.72;5035366;28;20405;-75
2022/09/20 00:52:11;;;;;;;24.30;11.15;;;8.90;99.90;;;7.76;100.00;97810.00;5044987;28;20411;-75
2022/09/20 00:54:37;;;;;;;31.73;11.40;;;8.90;99.90;;;7.73;100.00;97816.53;5031324;28;20465;-75
2022/09/20 00:57:03;;;;;;;25.45;11.40;;;8.80;99.90;;;7.71;100.00;97820.41;5051007;28;20409;-74
2022/09/20 00:59:33;;;;;;;23.30;11.10;;;8.80;99.90;;;7.67;100.00;97814.75;5047498;28;20505;-74
2022/09/20 01:02:05;;;;;;;19.90;10.15;;;8.80;99.90;;;7.64;100.00;97814.41;5038716;28;20416;-74
2022/09/20 01:04:34;;;;;;;22.55;10.57;;;8.80;99.90;;;7.62;100.00;97812.00;5050869;28;20409;-74
2022/09/20 01:07:04;;;;;;;29.40;12.05;;;8.70;99.90;;;7.63;100.00;97810.97;5032212;28;20431;-74
2022/09/20 01:09:30;;;;;;;29.13;12.13;;;8.70;99.90;;;7.55;100.00;97813.91;5047932;28;20922;-75
2022/09/20 01:12:01;;;;;;;23.33;11.38;;;8.70;99.90;;;7.51;100.00;97815.38;5031455;28;20419;-74
2022/09/20 01:14:27;;;;;;;28.63;12.07;;;8.60;99.90;;;7.50;100.00;97810.34;5044507;28;20478;-75
2022/09/20 01:16:56;;;;;;;29.77;11.98;;;8.60;99.90;;;7.47;100.00;97808.13;5033187;28;20422;-75
2022/09/20 01:19:34;;;;;;;26.52;11.38;;;8.60;99.90;;;7.45;100.00;97818.06;5031749;28;20403;-75
2022/09/20 01:22:05;;;;;;;28.15;12.02;;;8.60;99.90;;;7.45;100.00;97808.34;5031298;28;20404;-74
2022/09/20 01:24:44;;;;;;;26.15;11.43;;;8.60;99.90;;;7.55;100.00;97819.19;5030850;28;20426;-74
2022/09/20 01:27:22;;;;;;;29.63;12.13;;;8.60;99.90;;;7.60;100.00;97810.59;5032550;28;20434;-74
2022/09/20 01:30:04;;;;;;;22.77;10.25;;;8.70;99.90;;;7.57;100.00;97816.31;5031208;28;20403;-74
2022/09/20 01:32:44;;;;;;;23.87;11.30;;;8.70;99.90;;;7.59;100.00;97814.28;5031723;28;20839;-74
2022/09/20 01:35:11;;;;;;;31.13;12.02;;;8.70;99.90;;;7.60;100.00;97811.41;5033908;28;20418;-75
2022/09/20 01:37:53;;;;;;;28.23;12.00;;;8.70;99.90;;;7.60;100.00;97811.41;5047307;28;20403;-74
2022/09/20 01:40:28;;;;;;;29.13;11.88;;;8.70;99.90;;;7.61;100.00;97814.84;5030429;28;20415;-74
2022/09/20 01:43:05;;;;;;;24.33;11.05;;;8.70;99.90;;;7.63;100.00;97802.25;5046758;28;20558;-75
2022/09/20 01:45:32;;;;;;;33.50;11.70;;;8.70;99.90;;;7.67;100.00;97811.31;5035946;28;20405;-74
2022/09/20 01:48:12;;;;;;;18.90;9.75;;;8.80;99.90;;;7.69;100.00;97804.81;5050480;28;20417;-75
2022/09/20 01:51:04;;;;;;;31.60;10.93;;;8.80;99.90;;;7.67;100.00;97812.13;5049080;28;20491;-75
2022/09/20 01:54:02;;;;;;;24.73;9.70;;;8.80;99.90;;;7.68;100.00;97799.75;5050051;28;20924;-75
2022/09/20 01:56:58;;;;;;;24.00;11.20;;;8.80;99.90;;;7.69;100.00;97804.81;5050061;28;20841;-74
2022/09/20 02:00:08;;;;;;;20.77;9.80;;;8.80;99.90;;;7.78;100.00;97802.69;5050337;28;20409;-75
2022/09/20 02:03:21;;;;;;;29.67;11.90;;;8.80;99.90;;;7.82;100.00;97803.81;5050237;28;20410;-74
2022/09/20 02:06:32;;;;;;;23.92;10.30;;;8.80;99.90;;;7.81;100.00;97804.06;5040951;28;20422;-74
2022/09/20 02:09:27;;;;;;;22.50;10.18;;;8.90;99.90;;;7.85;100.00;97806.03;5031731;28;20406;-75
2022/09/20 02:12:27;;;;;;;24.20;10.82;;;8.90;99.90;;;7.84;100.00;97807.06;5034341;28;20455;-74
2022/09/20 02:15:07;;;;;;;20.80;9.55;;;8.90;99.90;;;7.82;100.00;97805.69;5026439;28;20768;-74
2022/09/20 02:17:48;;;;;;;17.52;9.40;;;8.90;99.90;;;7.91;100.00;97801.69;5063526;22;20914;-75
2022/09/20 02:20:29;;;;;;;25.93;9.47;;;8.90;99.90;;;7.92;100.00;97798.84;5054003;28;20415;-76
2022/09/20 02:23:27;;;;;;;20.87;8.60;;;9.00;99.90;;;7.98;100.00;97797.94;5062326;28;20409;-76
2022/09/20 02:26:32;;;;;;;21.23;9.10;;;9.00;99.90;;;8.06;100.00;97796.81;5049122;28;20827;-75
2022/09/20 02:29:13;;;;;;;27.42;9.45;;;9.00;99.90;;;7.98;100.00;97797.94;5049392;28;20407;-75
2022/09/20 02:32:04;;;;;;;19.83;9.27;;;9.00;99.90;;;8.05;100.00;97795.19;5032987;28;20418;-75
2022/09/20 02:34:56;;;;;;;21.52;9.10;;;9.10;99.90;;;7.97;100.00;97798.19;5031789;28;20410;-75
2022/09/20 02:38:08;;;;;;;20.60;9.13;;;9.00;99.90;;;7.92;100.00;97808.56;5037354;28;20758;-75
2022/09/20 02:40:59;;;;;;;20.93;10.00;;;9.00;99.90;;;7.89;100.00;97809.84;5028465;28;20427;-75
2022/09/20 02:43:34;;;;;;;17.73;9.45;;;9.00;99.90;;;7.87;100.00;97809.25;5029864;28;20414;-75
2022/09/20 02:46:07;;;;;;;16.23;8.63;;;8.90;99.90;;;7.85;100.00;97811.31;5030080;28;20521;-75
2022/09/20 02:48:54;;;;;;;22.07;9.17;;;8.90;99.90;;;7.86;100.00;97804.19;5028767;28;20856;-75
2022/09/20 02:51:29;;;;;;;22.17;9.60;;;8.90;99.90;;;7.82;100.00;97811.72;5045975;28;20409;-75
2022/09/20 02:54:11;;;;;;;20.25;9.50;;;8.90;99.90;;;7.81;100.00;97807.50;5052947;28;21098;-75
2022/09/20 02:56:46;;;;;;;25.85;9.65;;;8.90;99.90;;;7.82;100.00;97801.19;5053443;28;20405;-75
2022/09/20 02:59:26;;;;;;;25.70;9.35;;;8.90;99.90;;;7.82;100.00;97801.19;5053761;28;20416;-75
2022/09/20 03:02:03;;;;;;;22.52;9.32;;;8.90;99.90;;;7.82;100.00;97803.06;5051988;28;20413;-75
2022/09/20 03:04:44;;;;;;;28.85;9.93;;;8.90;99.90;;;7.84;100.00;97807.06;5043549;28;20403;-75
2022/09/20 03:07:24;;;;;;;18.52;9.05;;;8.90;99.90;;;7.82;100.00;97809.09;5033846;28;20967;-75
2022/09/20 03:10:04;;;;;;;19.80;8.65;;;8.90;99.90;;;7.82;100.00;97803.06;5034131;28;20411;-77
2022/09/20 03:12:51;;;;;;;25.15;9.20;;;8.90;99.90;;;7.82;100.00;97814.38;5033701;28;20407;-75
2022/09/20 03:15:31;;;;;;;27.27;9.95;;;8.90;99.90;;;7.76;100.00;97815.25;5049262;28;20437;-75
2022/09/20 03:18:08;;;;;;;23.15;9.35;;;8.80;99.90;;;7.72;100.00;97814.13;5033410;28;20403;-76
2022/09/20 03:20:48;;;;;;;19.10;8.02;;;8.80;99.90;;;7.76;100.00;97817.91;5033406;28;20410;-75
2022/09/20 03:23:40;;;;;;;21.83;9.70;;;8.70;99.90;;;7.69;100.00;97820.63;5032793;28;20411;-76
2022/09/20 03:26:19;;;;;;;19.15;9.55;;;8.80;99.90;;;7.73;100.00;97826.28;5033548;28;20773;-75
2022/09/20 03:28:59;;;;;;;28.80;9.80;;;8.80;99.90;;;7.73;100.00;97818.38;5033621;28;20419;-75
2022/09/20 03:31:44;;;;;;;23.10;9.70;;;8.80;99.90;;;7.75;100.00;97824.19;5047030;28;21731;-76
2022/09/20 03:34:29;;;;;;;21.10;9.95;;;8.80;99.90;;;7.76;100.00;97820.53;5032972;28;20974;-76
2022/09/20 03:37:13;;;;;;;17.75;9.38;;;8.80;99.90;;;7.76;100.00;97818.72;5033249;28;20548;-77
2022/09/20 03:40:25;;;;;;;22.80;9.20;;;8.80;99.90;;;7.75;100.00;97817.09;5039449;28;20485;-76
2022/09/20 03:42:53;;;;;;;21.30;9.93;;;8.80;99.90;;;7.75;100.00;97824.19;5031377;28;20422;-76
2022/09/20 03:45:50;;;;;;;24.85;9.88;;;8.80;99.90;;;7.80;100.00;97824.34;5039981;28;20444;-77
2022/09/20 03:48:58;;;;;;;18.70;9.27;;;8.80;99.90;;;7.85;100.00;97821.03;5033439;28;20468;-76
2022/09/20 03:51:28;;;;;;;19.75;9.52;;;8.90;99.90;;;7.87;100.00;97816.34;5031637;28;20515;-77
2022/09/20 03:54:36;;;;;;;19.00;8.88;;;8.90;99.90;;;7.90;100.00;97818.53;5031301;28;20429;-77
2022/09/20 03:57:33;;;;;;;24.50;8.95;;;8.90;99.90;;;7.94;100.00;97820.50;5032472;28;20564;-77
2022/09/20 04:00:22;;;;;;;25.77;9.10;;;9.00;99.90;;;7.97;100.00;97827.19;5032688;28;20410;-76
2022/09/20 04:03:21;;;;;;;24.00;9.55;;;9.00;99.90;;;8.05;100.00;97830.28;5037108;28;20399;-77
2022/09/20 04:06:25;;;;;;;23.92;8.15;;;9.10;99.90;;;8.05;100.00;97832.13;5032487;28;20435;-79
2022/09/20 04:09:27;;;;;;;18.40;8.27;;;9.10;99.90;;;8.05;100.00;97835.56;5038227;28;20431;-77
2022/09/20 04:12:03;;;;;;;19.90;8.75;;;9.10;99.90;;;8.08;100.00;97826.41;5006013;28;20514;-78
2022/09/20 04:14:42;;;;;;;28.60;9.77;;;9.10;99.90;;;8.07;100.00;97836.16;5037483;28;20937;-78
2022/09/20 04:17:29;;;;;;;21.70;8.60;;;9.10;99.90;;;8.10;100.00;97824.34;5039411;28;20472;-77
2022/09/20 04:20:02;;;;;;;23.45;9.13;;;9.10;99.90;;;8.09;100.00;97834.09;5042785;28;20501;-75
2022/09/20 04:22:29;;;;;;;26.85;9.40;;;9.10;99.90;;;8.11;100.00;97839.97;5037165;28;20469;-76
2022/09/20 04:25:01;;;;;;;21.77;8.77;;;9.10;99.90;;;8.15;100.00;97832.38;5042356;28;20891;-76
2022/09/20 04:27:30;;;;;;;30.65;10.55;;;9.20;99.90;;;8.19;100.00;97840.66;5039986;28;20421;-77
2022/09/20 04:30:05;;;;;;;25.15;10.45;;;9.20;99.90;;;8.18;100.00;97839.06;5036747;28;20834;-76
2022/09/20 04:32:40;;;;;;;24.40;9.20;;;9.20;99.90;;;8.26;100.00;97847.47;5039513;28;20484;-76
2022/09/20 04:38:11;;;;;;;24.00;10.30;;;9.30;99.90;;;8.19;100.00;97854.66;5037407;28;21050;-76
2022/09/20 04:41:11;;;;;;;24.80;10.00;;;9.20;99.90;;;8.16;100.00;97852.47;5038551;28;20597;-74
2022/09/20 04:44:21;;;;;;;33.03;12.07;;;9.20;99.90;;;8.12;100.00;97853.91;5045775;28;20413;-73
2022/09/20 04:47:22;;;;;;;34.37;13.53;;;9.20;99.90;;;8.14;100.00;97859.78;5049727;28;20406;-73
2022/09/20 04:50:53;;;;;;;36.17;13.25;;;9.20;99.90;;;8.09;100.00;97852.56;5009235;28;20426;-73
2022/09/20 04:53:51;;;;;;;43.35;14.88;;;9.20;99.90;;;8.09;100.00;97855.19;5043349;28;20401;-74
2022/09/20 04:56:26;;;;;;;40.70;14.55;;;9.20;99.90;;;8.06;100.00;97863.53;5039897;28;20414;-73
2022/09/20 04:59:18;;;;;;;41.35;14.77;;;9.10;99.90;;;8.07;100.00;97865.16;5043700;28;21048;-73
2022/09/20 05:02:20;;;;;;;42.27;15.17;;;9.10;99.90;;;8.09;100.00;97864.94;5041042;28;20581;-76
2022/09/20 05:05:27;;;;;;;29.50;13.33;;;9.10;99.90;;;8.04;100.00;97862.94;4998862;28;20476;-75
2022/09/20 05:08:44;;;;;;;43.72;14.98;;;9.10;99.90;;;8.03;100.00;97874.53;5031169;28;20416;-75
2022/09/20 05:11:42;;;;;;;39.00;15.35;;;9.10;99.90;;;8.00;100.00;97872.34;5040460;28;20480;-75
2022/09/20 05:14:35;;;;;;;33.65;14.63;;;9.10;99.90;;;8.04;100.00;97876.13;5048152;28;20406;-75
2022/09/20 05:17:20;;;;;;;38.45;15.57;;;9.10;99.90;;;8.02;100.00;97867.66;5051081;28;20405;-75
2022/09/20 05:20:25;;;;;;;44.63;17.17;;;9.10;99.90;;;8.02;100.00;97869.50;5049811;28;20826;-75
2022/09/20 05:23:51;;;;;;;38.20;15.90;;;9.10;99.90;;;8.00;100.00;97882.06;5049526;28;20864;-75
2022/09/20 05:26:33;;;;;;;45.43;15.17;;;9.00;99.90;;;8.00;100.00;97884.72;5055510;28;20393;-75
2022/09/20 05:29:03;;;;;;;58.67;16.92;;;9.00;99.90;;;7.99;100.00;97877.81;5031065;28;20423;-75
2022/09/20 05:31:39;;;;;;;37.10;16.63;;;9.00;99.90;;;8.02;100.00;97885.31;5031288;28;20454;-74
2022/09/20 05:34:20;;;;;;;49.10;17.00;;;9.00;99.90;;;8.01;100.00;97886.31;5030752;28;20399;-75
2022/09/20 05:36:56;;;;;;;43.03;15.67;;;9.10;99.90;;;8.01;100.00;97896.88;5031038;28;20402;-74
2022/09/20 05:39:35;;;;;;;44.28;16.40;;;9.10;99.90;;;7.99;100.00;97888.38;5032020;28;20478;-75
2022/09/20 05:42:17;;;;;;;50.33;17.35;;;9.10;99.90;;;7.96;100.00;97889.63;5048534;28;20397;-75
2022/09/20 05:45:12;;;;;;;53.95;18.73;;;9.00;99.90;;;7.96;100.00;97886.19;5050200;28;20397;-75
2022/09/20 05:47:51;;;;;;;44.55;16.58;;;9.00;99.90;;;7.93;100.00;97889.25;5056400;28;20821;-75
2022/09/20 05:50:38;;;;;;;50.40;16.48;;;9.00;99.90;;;7.91;100.00;97897.38;5054752;28;20869;-74
2022/09/20 05:53:42;;;;;;;47.70;17.00;;;9.00;99.90;;;7.90;100.00;97894.97;5030404;28;20402;-74
2022/09/20 05:56:21;;;;;;;45.70;16.93;;;9.00;99.90;;;7.91;100.00;97904.50;5030737;28;20402;-74
2022/09/20 05:59:04;;;;;;;43.83;16.02;;;9.00;99.90;;;7.94;100.00;97902.22;5030670;28;20395;-74
2022/09/20 06:01:38;;;;;;;50.70;17.58;;;9.00;99.90;;;8.00;100.00;97909.25;5030394;28;20510;-74
2022/09/20 06:04:16;;;;;;;45.80;17.10;;;9.10;99.90;;;8.06;100.00;97912.81;5030154;28;20402;-75
2022/09/20 06:06:56;;;;;;;44.45;16.45;;;9.10;99.90;;;8.08;100.00;97911.59;5030667;28;20872;-75
2022/09/20 06:09:45;;;;;;;41.67;15.10;;;9.10;99.90;;;8.10;100.00;97911.38;5030636;28;20760;-74
2022/09/20 06:12:37;;;;;;;44.85;15.70;;;9.10;99.90;;;8.13;100.00;97913.53;5030659;28;20549;-75
2022/09/20 06:15:20;;;;;;;41.45;15.38;;;9.20;99.90;;;8.16;100.00;97913.09;5030105;28;20438;-75
2022/09/20 06:17:56;;;;;;;46.50;15.05;;;9.20;99.90;;;8.18;100.00;97911.06;5030318;28;20441;-75
2022/09/20 06:20:30;;;;;;;33.10;13.63;;;9.20;99.90;;;8.22;100.00;97909.56;5030502;28;20474;-75
2022/09/20 06:23:00;;;;;;;45.40;14.48;;;9.20;99.90;;;8.25;100.00;97914.41;5029896;28;20403;-75
2022/09/20 06:25:33;;;;;;;42.33;14.80;;;9.30;99.90;;;8.26;100.00;97902.84;5030164;28;20418;-75
2022/09/20 06:28:05;;;;;;;42.42;14.48;;;9.30;99.90;;;8.26;100.00;97904.69;5030137;28;20460;-75
2022/09/20 06:30:38;;;;;;;36.45;13.73;;;9.30;99.90;;;8.27;100.00;97904.44;5030394;28;20904;-75
2022/09/20 06:33:15;;;;;;;36.65;13.65;;;9.30;99.90;;;8.27;100.00;97914.19;5029818;28;20399;-75
2022/09/20 06:35:47;;;;;;;31.48;12.60;;;9.30;99.90;;;8.31;100.00;97920.66;5030255;28;20403;-75
2022/09/20 06:41:33;;;;;;;39.05;13.20;;;9.40;99.90;;;8.35;100.00;97914.69;5030293;28;20390;-75
2022/09/20 06:44:00;;;;;;;33.22;12.35;;;9.30;99.90;;;8.42;100.00;97925.97;5029797;28;20881;-76
2022/09/20 06:46:29;;;;;;;30.90;11.33;;;9.40;99.90;;;8.45;100.00;97932.63;5030131;28;20877;-75
2022/09/20 06:48:55;;;;;;;44.08;13.63;;;9.40;99.90;;;8.49;100.00;97929.31;5030030;28;20773;-75
2022/09/20 06:51:22;;;;;;;38.67;12.70;;;9.50;99.90;;;8.54;100.00;97929.47;5030064;28;20407;-75
2022/09/20 06:53:49;;;;;;;39.22;12.48;;;9.60;99.90;;;8.59;100.00;97934.06;5029661;28;20399;-75
2022/09/20 06:56:19;;;;;;;40.22;12.70;;;9.60;99.90;;;8.58;100.00;97931.66;5030096;28;20442;-75
2022/09/20 06:58:45;;;;;;;31.85;11.60;;;9.60;99.90;;;8.62;100.00;97932.81;5029990;28;20805;-75
2022/09/20 07:01:12;;;;;;;32.35;11.77;;;9.60;99.90;;;8.63;100.00;97937.88;5030106;28;20502;-75
2022/09/20 07:03:38;;;;;;;39.58;12.23;;;9.60;99.90;;;8.66;100.00;97937.41;5032070;28;20413;-75
2022/09/20 07:06:05;;;;;;;41.80;12.05;;;9.60;99.90;;;8.68;100.00;97932.72;5037159;28;20418;-75
2022/09/20 07:08:31;;;;;;;31.77;10.25;;;9.70;99.90;;;8.74;100.00;97936.28;5029756;28;20415;-75
2022/09/20 07:11:03;;;;;;;27.50;10.60;;;9.70;99.90;;;8.77;100.00;97939.28;5040289;28;20407;-77
2022/09/20 07:13:29;;;;;;;35.75;11.65;;;9.70;99.90;;;8.86;100.00;97931.84;5038640;28;20413;-76
2022/09/20 07:16:01;;;;;;;38.03;10.63;;;9.80;99.90;;;8.82;100.00;97935.97;5040241;28;20424;-75
2022/09/20 07:18:28;;;;;;;36.00;10.27;;;9.80;99.90;;;8.83;100.00;97941.03;5031324;28;20967;-76
2022/09/20 07:20:57;;;;;;;32.05;9.77;;;9.80;99.90;;;8.87;100.00;97939.53;5042144;28;21149;-77
2022/09/20 07:23:24;;;;;;;25.75;9.60;;;9.80;99.90;;;8.92;100.00;97952.88;5044423;28;20766;-76
2022/09/20 07:25:50;;;;;;;31.67;9.90;;;9.90;99.90;;;9.02;100.00;97949.66;5034170;28;20417;-77
2022/09/20 07:28:19;;;;;;;27.23;9.37;;;10.00;99.90;;;9.08;100.00;97950.63;5034025;28;20483;-76
2022/09/20 07:30:45;;;;;;;24.25;8.98;;;10.00;99.90;;;9.15;100.00;97952.13;5045530;28;20409;-76
2022/09/20 07:33:15;;;;;;;23.42;9.13;;;10.10;99.90;;;9.23;100.00;97948.34;5039720;28;20424;-77
2022/09/20 07:35:41;;;;;;;30.10;9.52;;;10.20;99.90;;;9.32;100.00;97960.19;5040520;28;20481;-76
2022/09/20 07:38:07;;;;;;;25.08;9.23;;;10.20;99.90;;;9.45;100.00;97961.78;5042126;28;20409;-78
2022/09/20 07:40:33;;;;;;;18.60;8.40;;;10.40;99.90;;;9.56;100.00;97953.03;5044433;28;20595;-77
2022/09/20 07:42:59;;;;;;;27.92;9.07;;;10.40;99.90;;;9.66;100.00;97948.78;5041766;28;20724;-79
2022/09/20 07:45:26;;;;;;;21.27;8.18;;;10.60;99.90;;;9.74;100.00;97960.06;5045231;28;20497;-77
2022/09/20 07:47:53;;;;;;;24.70;7.80;;;10.60;99.90;;;9.81;100.00;97958.09;5043089;28;20490;-78
2022/09/20 07:50:19;;;;;;;18.15;7.15;;;10.70;99.90;;;9.87;100.00;97957.16;5039381;28;20415;-79
2022/09/20 07:52:45;;;;;;;18.30;6.37;;;10.70;99.90;;;9.88;100.00;97958.75;5038633;28;20462;-76
2022/09/20 07:55:11;;;;;;;21.77;6.50;;;10.80;99.90;;;9.87;100.00;97960.59;5037798;28;20422;-76
2022/09/20 07:57:37;;;;;;;21.02;6.20;;;10.80;99.90;;;9.86;100.00;97968.75;5048209;28;20413;-75
2022/09/20 08:00:07;;;;;;;23.42;6.47;;;10.80;99.90;;;9.85;100.00;97973.25;5043506;28;20421;-78
2022/09/20 08:02:34;;;;;;;19.67;6.07;;;10.80;99.90;;;9.85;100.00;97975.13;5040632;28;20423;-83
2022/09/20 08:05:00;;;;;;;22.55;6.15;;;10.70;99.90;;;9.82;100.00;97972.91;5039437;28;20448;-81
2022/09/20 08:07:27;;;;;;;15.80;5.53;;;10.70;99.90;;;9.86;100.00;97974.84;5044966;28;20418;-83
2022/09/20 08:09:53;;;;;;;19.40;5.68;;;10.80;99.90;;;9.90;100.00;97976.03;5041420;28;20427;-79
2022/09/20 08:12:19;;;;;;;19.83;6.37;;;10.80;99.90;;;9.93;100.00;97974.72;5038722;28;20426;-80
2022/09/20 08:14:45;;;;;;;16.25;5.53;;;10.80;99.90;;;10.04;100.00;97976.56;5045239;28;20409;-86
2022/09/20 08:17:11;;;;;;;18.92;5.60;;;10.90;99.90;;;10.04;100.00;97976.56;5036217;28;20497;-74
2022/09/20 08:19:39;;;;;;;18.07;4.80;;;11.00;99.90;;;10.19;100.00;97981.41;5070884;22;20427;-75
2022/09/20 08:22:05;;;;;;;18.70;5.45;;;11.00;99.90;;;10.32;100.00;97994.38;5072073;28;20402;-74
2022/09/20 08:24:31;;;;;;;18.17;5.05;;;11.20;99.90;;;10.41;100.00;97993.78;5080137;28;20921;-74
2022/09/20 08:26:58;;;;;;;17.90;4.63;;;11.20;99.90;;;10.58;100.00;97996.47;5083684;28;20436;-74
2022/09/20 08:29:24;;;;;;;16.80;4.03;;;11.40;99.90;;;10.57;100.00;97986.94;5075659;28;20467;-72
2022/09/20 08:31:51;;;;;;;17.27;4.45;;;11.40;99.90;;;10.69;100.00;97990.31;5062385;28;20857;-72
2022/09/20 08:34:17;;;;;;;24.92;5.28;;;11.50;99.90;;;10.58;100.00;97988.53;5062964;28;20442;-75
2022/09/20 08:36:45;;;;;;;23.30;4.50;;;11.50;99.90;;;10.70;100.00;97993.78;5053152;28;20923;-74
2022/09/20 08:39:12;;;;;;;11.48;3.60;;;11.50;99.90;;;10.78;100.00;97988.91;5056918;28;20922;-74
2022/09/20 08:41:45;;;;;;;18.05;4.00;;;11.60;99.90;;;10.83;100.00;97996.13;5070309;28;20490;-74
2022/09/20 08:44:17;;;;;;;22.40;4.60;;;11.70;99.90;;;10.85;100.00;97997.50;5070670;28;20399;-74
2022/09/20 08:46:47;;;;;;;21.88;4.25;;;11.70;99.90;;;10.86;100.00;97985.06;5066543;28;21009;-73
2022/09/20 08:49:21;;;;;;;11.43;3.60;;;11.70;99.90;;;10.97;100.00;97989.53;5054670;28;20407;-74
2022/09/20 08:51:49;;;;;;;10.25;3.42;;;11.80;99.90;;;11.09;100.00;97989.44;5055423;28;20412;-75
2022/09/20 08:54:16;;;;;;;11.50;3.60;;;11.90;99.90;;;11.18;100.00;97993.31;5062587;28;20418;-74
2022/09/20 08:56:44;;;;;;;14.55;3.47;;;12.00;99.90;;;11.12;100.00;97988.97;5071294;28;20412;-75
2022/09/20 08:59:16;;;;;;;14.88;4.05;;;12.00;99.90;;;11.16;100.00;97995.41;5063508;28;20432;-75
2022/09/20 09:01:42;;;;;;;17.10;4.35;;;12.00;99.90;;;11.09;100.00;97995.56;5066337;28;20411;-75
2022/09/20 09:04:14;;;;;;;9.73;3.17;;;11.90;99.90;;;11.18;100.00;97986.19;5059251;28;20413;-75
2022/09/20 09:06:41;;;;;;;13.40;3.20;;;12.00;99.90;;;11.13;100.00;97993.22;5066397;28;20436;-75
2022/09/20 09:09:17;;;;;;;13.27;3.40;;;12.00;99.90;;;11.00;100.00;97991.69;5071047;28;20831;-75
2022/09/20 09:11:43;;;;;;;14.40;3.50;;;11.90;99.90;;;10.97;100.00;97992.16;5062540;28;20416;-74
2022/09/20 09:17:02;;;;;;;14.60;3.20;;;11.90;99.90;;;10.97;100.00;97989.53;5058182;28;20477;-75
2022/09/20 09:19:30;;;;;;;10.80;3.17;;;11.80;99.90;;;10.96;100.00;97990.56;5055509;28;20937;-74
2022/09/20 09:21:57;;;;;;;15.82;3.55;;;11.80;99.90;;;11.03;100.00;97987.75;5061189;28;20440;-75
2022/09/20 09:24:25;;;;;;;10.63;3.47;;;11.80;99.90;;;11.13;100.00;97983.41;5070345;28;20412;-75
2022/09/20 09:27:08;;;;;;;12.07;2.90;;;11.90;99.90;;;11.36;100.00;97981.66;5068375;28;20408;-75
2022/09/20 09:29:34;;;;;;;10.48;2.70;;;12.10;99.90;;;11.59;100.00;97982.31;5050954;28;20508;-75
2022/09/20 09:32:22;;;;;;;8.00;2.47;;;12.30;99.90;;;11.81;100.00;97985.03;5052137;28;20417;-74
2022/09/20 09:34:48;;;;;;;12.00;2.88;;;12.60;99.90;;;11.97;100.00;97970.13;5066602;28;20761;-74
2022/09/20 09:37:29;;;;;;;12.93;2.75;;;12.80;99.90;;;11.87;100.00;97972.66;5051276;28;20444;-74
2022/09/20 09:40:15;;;;;;;10.07;2.90;;;12.70;99.90;;;11.82;100.00;97967.25;5050817;28;20496;-74
2022/09/20 09:42:49;;;;;;;12.68;2.80;;;12.60;99.90;;;11.80;100.00;97964.84;5062948;28;20453;-75
2022/09/20 09:45:27;;;;;;;9.30;2.70;;;12.60;99.90;;;11.86;100.00;97973.72;5049177;28;20822;-75
2022/09/20 09:47:54;;;;;;;13.02;2.83;;;12.70;99.90;;;11.69;100.00;97968.41;5043868;28;20413;-74
2022/09/20 09:50:23;;;;;;;8.93;2.50;;;12.60;99.90;;;11.56;100.00;97974.03;5043902;28;20428;-74
2022/09/20 09:53:04;;;;;;;9.77;2.60;;;12.40;99.90;;;11.51;100.00;97973.94;5055949;28;20511;-75
2022/09/20 09:55:59;;;;;;;8.52;2.20;;;12.40;99.90;;;11.37;100.00;97975.31;5052046;28;20482;-75
2022/09/20 09:58:42;;;;;;;12.53;2.93;;;12.30;99.90;;;11.28;100.00;97974.91;5049650;28;20409;-75
2022/09/20 10:01:19;;;;;;;10.27;2.37;;;12.20;99.90;;;11.27;100.00;97980.47;5043246;28;20771;-75
2022/09/20 10:03:58;;;;;;;7.57;2.55;;;12.20;99.90;;;11.31;100.00;97979.75;5050140;28;20514;-73
2022/09/20 10:06:31;;;;;;;6.25;2.30;;;12.10;99.90;;;11.36;100.00;97976.38;5061716;28;20411;-74
2022/09/20 10:09:18;;;;;;;15.57;2.90;;;12.20;99.90;;;11.40;100.00;97980.16;5050544;28;20421;-75
2022/09/20 10:12:03;;;;;;;10.20;2.85;;;12.20;99.90;;;11.38;100.00;97982.22;5035794;28;20401;-74
2022/09/20 10:14:47;;;;;;;12.50;2.60;;;12.20;99.90;;;11.43;100.00;97975.16;5041263;28;20405;-73
2022/09/20 10:17:42;;;;;;;8.02;2.67;;;12.30;99.90;;;11.45;100.00;97973.06;5050324;28;20402;-73
2022/09/20 10:20:30;;;;;;;7.43;2.55;;;12.30;99.90;;;11.54;100.00;97971.63;5057920;28;20921;-74
2022/09/20 10:23:13;;;;;;;9.88;2.95;;;12.40;99.90;;;11.64;100.00;97971.78;5061804;28;20405;-73
2022/09/20 10:25:50;;;;;;;8.77;2.65;;;12.50;99.90;;;11.88;100.00;97968.94;5034128;28;20543;-75
2022/09/20 10:28:47;;;;;;;8.57;2.37;;;12.70;99.90;;;12.06;100.00;97971.31;5050727;28;20417;-74
2022/09/20 10:31:29;;;;;;;5.90;2.20;;;12.80;99.90;;;12.25;100.00;97974.50;5047700;28;20401;-73
2022/09/20 10:34:16;;;;;;;6.93;2.50;;;13.00;99.90;;;12.25;100.00;97971.81;5044141;28;20419;-74
2022/09/20 10:36:50;;;;;;;10.97;2.40;;;13.00;99.90;;;12.29;100.00;97965.78;5048631;28;20459;-74
2022/09/20 10:39:24;;;;;;;7.00;2.15;;;13.10;99.90;;;12.14;100.00;97970.09;5046947;28;20409;-74
2022/09/20 10:45:06;;;;;;;7.60;2.22;;;12.80;99.90;;;11.81;100.00;97977.06;5060771;28;20395;-73
2022/09/20 10:47:40;;;;;;;9.85;2.78;;;12.70;99.90;;;11.78;100.00;97982.88;5066576;28;20830;-75
2022/09/20 10:50:28;;;;;;;8.30;2.60;;;12.60;99.90;;;11.76;100.00;97968.25;5060023;28;20417;-74
2022/09/20 10:53:23;;;;;;;8.50;2.37;;;12.60;99.90;;;11.70;100.00;97977.16;5065791;28;20495;-74
2022/09/20 10:56:02;;;;;;;7.90;2.38;;;12.60;99.90;;;11.65;100.00;97985.84;5036802;28;20420;-75
2022/09/20 10:58:47;;;;;;;9.85;2.70;;;12.50;99.90;;;11.62;100.00;97978.38;5052052;28;20410;-75
2022/09/20 11:01:22;;;;;;;13.93;3.10;;;12.50;99.90;;;11.65;100.00;97973.38;5051584;28;20929;-74
2022/09/20 11:04:16;;;;;;;7.53;2.60;;;12.50;99.90;;;11.64;100.00;97976.28;5057423;28;20420;-74
2022/09/20 11:06:54;;;;;;;9.35;2.80;;;12.60;99.90;;;11.71;100.00;97974.25;5039184;28;20508;-74
2022/09/20 11:09:24;;;;;;;9.70;3.05;;;12.50;99.90;;;11.73;100.00;97974.03;5033763;28;20473;-73
2022/09/20 11:11:57;;;;;;;6.57;2.63;;;12.60;99.90;;;11.88;100.00;97969.75;5035470;28;21134;-72
2022/09/20 11:14:31;;;;;;;14.13;3.35;;;12.70;99.90;;;11.79;100.00;97973.88;5038310;28;20508;-74